Sheridan County Airport Sheridan US
ICAO: KSHR
IATA: SHR
Category: Medium
Scheduled Services: Yes

Elevation: 4021 ft
TransAlt. 18000 ft.

Airport Communications:
ASOS:135.175
SALT LAKE CITY CNTR:127.75
CASPER RDO:122.5
CTAF/UNICOM:123

KSHR Zoom In..

If you have problems with the map follow the link
https://www.worldairports.se/pages/airport.php?
ICAO=KSHR

Runways:

(A) RW 05 length 5039 ft width 75 ft
---- / hdg 55

(B) RW 14 length 8301 ft width 100 ft
---- / hdg 143

(C) RW 23 length 5039 ft width 75 ft
---- / hdg 235

(D) RW 32 length 8301 ft width 100 ft
ILS 108.70 / hdg 323

Location; KSHR
Day. 11 / Time. 12.53 Zulu
* Altimeter: 29.92
* Temperature: -07° c. -19.4°f.
* Wind from: 120° Speed 03 kn.
Dewpoint: -10° c.
Visibility: 10 Statute Miles.
Clouds: Clear (automated report).

KSHR 111253Z AUTO 12003KT 10SM CLR M07/M10 A2992 RMK AO2 SLP181 T10721100


Wind From 120°
Speed 03 kn.

 
 
jpsmedia worldairports.se 2019   terms of use